Time;durP1;ratioP1;P1;durP2;ratioP2;P2;SDS_P1;SDS_P2;PMS_P1;PMS_P2;Temp;Humidity;BMP_temperature;BMP_pressure;BME280_temperature;BME280_humidity;BME280_pressure;Samples;Min_cycle;Max_cycle;Signal;HPM_P1;HPM_P2
2021/12/06 00:01:24;;;;;;;15.07;12.10;;;0.60;99.90;;;;;;5016247;28;20034;-72
2021/12/06 00:03:57;;;;;;;14.85;10.30;;;0.60;99.90;;;;;;5019738;28;20028;-71
2021/12/06 00:06:26;;;;;;;13.80;11.40;;;0.60;99.90;;;;;;5015367;28;20411;-72
2021/12/06 00:08:52;;;;;;;12.52;11.25;;;0.60;99.90;;;;;;5019910;28;20032;-71
2021/12/06 00:11:18;;;;;;;13.70;10.95;;;0.50;99.90;;;;;;5011596;28;20018;-71
2021/12/06 00:13:45;;;;;;;12.93;10.70;;;0.50;99.90;;;;;;5020764;28;20021;-71
2021/12/06 00:16:17;;;;;;;14.05;11.35;;;0.40;99.90;;;;;;5018308;28;20061;-71
2021/12/06 00:18:43;;;;;;;12.52;11.20;;;0.30;99.90;;;;;;5027893;28;20061;-71
2021/12/06 00:21:09;;;;;;;12.50;10.00;;;0.20;99.90;;;;;;5023886;28;20068;-71
2021/12/06 00:23:35;;;;;;;14.38;11.20;;;0.30;99.90;;;;;;5022760;28;20096;-71
2021/12/06 00:26:01;;;;;;;12.35;9.45;;;0.20;99.90;;;;;;5023278;28;20101;-71
2021/12/06 00:28:27;;;;;;;14.52;11.30;;;0.20;99.90;;;;;;5023047;28;20407;-70
2021/12/06 00:30:53;;;;;;;17.80;13.48;;;0.20;99.90;;;;;;5012188;28;20026;-70
2021/12/06 00:33:19;;;;;;;18.63;14.57;;;0.10;99.90;;;;;;5025368;28;20091;-70
2021/12/06 00:35:45;;;;;;;19.42;14.70;;;0.00;99.90;;;;;;5023090;28;20476;-71
2021/12/06 00:38:11;;;;;;;44.17;25.63;;;0.00;99.90;;;;;;5021142;28;20055;-71
2021/12/06 00:40:40;;;;;;;34.40;19.30;;;-0.10;99.90;;;;;;5021653;28;20014;-71
2021/12/06 00:43:06;;;;;;;426.30;46.50;;;-0.30;99.90;;;;;;5022627;28;20026;-71
2021/12/06 00:45:33;;;;;;;15.90;12.93;;;-0.40;99.90;;;;;;5019320;28;20079;-70
2021/12/06 00:47:59;;;;;;;59.03;22.25;;;-0.40;99.90;;;;;;5011323;28;20361;-70
2021/12/06 00:50:28;;;;;;;16.95;14.85;;;-0.50;99.90;;;;;;5021007;28;20362;-70
2021/12/06 00:52:54;;;;;;;16.55;14.68;;;-0.40;99.90;;;;;;5017750;28;20133;-71
2021/12/06 00:55:20;;;;;;;20.52;18.10;;;-0.40;99.90;;;;;;5028159;28;20057;-72
2021/12/06 00:57:47;;;;;;;14.57;13.07;;;-0.50;99.90;;;;;;5024591;28;20419;-73
2021/12/06 01:00:21;;;;;;;15.25;13.60;;;-0.50;99.90;;;;;;5026969;28;20030;-72
2021/12/06 01:02:48;;;;;;;15.63;12.75;;;-0.40;99.90;;;;;;5014823;28;20057;-72
2021/12/06 01:05:14;;;;;;;13.05;11.63;;;-0.50;99.90;;;;;;5022841;28;20058;-72
2021/12/06 01:07:39;;;;;;;13.80;11.75;;;-0.50;99.90;;;;;;5021743;28;20146;-72
2021/12/06 01:10:07;;;;;;;13.25;11.57;;;-0.40;99.90;;;;;;5022568;28;20033;-72
2021/12/06 01:12:32;;;;;;;14.93;12.02;;;-0.40;99.90;;;;;;5028081;28;20387;-73
2021/12/06 01:14:59;;;;;;;14.05;11.82;;;-0.30;99.90;;;;;;5025974;28;20032;-72
2021/12/06 01:17:24;;;;;;;15.98;13.18;;;-0.40;99.90;;;;;;5025019;28;20026;-72
2021/12/06 01:19:50;;;;;;;13.73;11.15;;;-0.40;99.90;;;;;;5014337;28;20037;-72
2021/12/06 01:22:26;;;;;;;18.17;14.65;;;-0.40;99.90;;;;;;5017602;28;20392;-72
2021/12/06 01:24:59;;;;;;;;;;;-0.50;99.90;;;;;;5023765;28;20029;-72
2021/12/06 01:40:18;;;;;;;17.08;12.77;;;-0.60;99.90;;;;;;5014340;28;20049;-72
2021/12/06 01:42:43;;;;;;;16.85;13.65;;;-0.60;99.90;;;;;;5027430;28;20097;-72
2021/12/06 01:45:09;;;;;;;15.23;11.90;;;-0.70;99.90;;;;;;5013994;28;20045;-72
2021/12/06 01:47:37;;;;;;;14.18;12.60;;;-0.70;99.90;;;;;;5027448;28;20026;-72
2021/12/06 01:50:08;;;;;;;13.23;10.98;;;-0.80;99.90;;;;;;5012698;28;20083;-73
2021/12/06 01:52:38;;;;;;;13.40;11.80;;;-0.70;99.90;;;;;;5014074;28;20034;-73
2021/12/06 01:55:07;;;;;;;15.60;10.35;;;-0.60;99.90;;;;;;5013611;28;20026;-73
2021/12/06 01:57:32;;;;;;;17.40;11.93;;;-0.70;99.90;;;;;;5018121;28;20491;-73
2021/12/06 01:59:59;;;;;;;13.30;10.82;;;-0.60;99.90;;;;;;5026941;28;20060;-73
2021/12/06 02:02:26;;;;;;;16.45;13.15;;;-0.60;99.90;;;;;;5013731;28;20026;-72
2021/12/06 02:04:52;;;;;;;17.58;11.45;;;-0.70;99.90;;;;;;5012266;28;20026;-75
2021/12/06 02:07:22;;;;;;;14.52;11.00;;;-0.70;99.90;;;;;;5012563;28;20061;-74
2021/12/06 02:09:49;;;;;;;14.07;10.23;;;-0.70;99.90;;;;;;5013716;28;20030;-75
2021/12/06 02:12:16;;;;;;;16.17;10.30;;;-0.60;99.90;;;;;;5020404;28;20025;-73
2021/12/06 02:14:54;;;;;;;14.85;11.23;;;-0.60;99.90;;;;;;5018431;28;20021;-73
2021/12/06 02:17:25;;;;;;;13.95;10.80;;;-0.60;99.90;;;;;;5012158;28;20026;-72
2021/12/06 02:19:59;;;;;;;18.48;10.48;;;-0.50;99.90;;;;;;5028102;28;20112;-75
2021/12/06 02:22:27;;;;;;;14.00;8.98;;;-0.60;99.90;;;;;;5015701;28;20018;-74
2021/12/06 02:24:55;;;;;;;17.02;9.90;;;-0.60;99.90;;;;;;5013240;28;20025;-75
2021/12/06 02:27:25;;;;;;;15.77;10.00;;;-0.50;99.90;;;;;;5024813;28;20025;-75
2021/12/06 02:29:53;;;;;;;13.02;10.25;;;-0.60;99.90;;;;;;5016896;28;20116;-75
2021/12/06 02:32:20;;;;;;;16.95;12.90;;;-0.60;99.90;;;;;;5024944;28;20025;-76
2021/12/06 02:34:49;;;;;;;17.17;10.73;;;-0.60;99.90;;;;;;5019289;28;20072;-74
2021/12/06 02:37:23;;;;;;;16.17;10.43;;;-0.60;99.90;;;;;;5027644;28;20029;-73
2021/12/06 02:39:50;;;;;;;21.38;12.43;;;-0.60;99.90;;;;;;5024031;28;20040;-75
2021/12/06 02:42:17;;;;;;;18.92;12.75;;;-0.70;99.90;;;;;;5013083;28;20022;-75
2021/12/06 02:44:44;;;;;;;21.85;14.35;;;-1.10;99.90;;;;;;5013055;28;20057;-74
2021/12/06 02:47:10;;;;;;;22.25;16.55;;;-0.80;99.90;;;;;;5013052;28;20025;-74
2021/12/06 02:49:37;;;;;;;16.38;12.93;;;-0.80;99.90;;;;;;5022495;28;20075;-73
2021/12/06 02:52:04;;;;;;;19.35;13.60;;;-0.90;99.90;;;;;;5016492;28;20030;-71
2021/12/06 02:54:29;;;;;;;17.02;13.27;;;-0.70;99.90;;;;;;5021055;28;20427;-73
2021/12/06 02:57:17;;;;;;;22.90;15.88;;;-0.60;99.90;;;;;;5032518;28;20033;-73
2021/12/06 02:59:43;;;;;;;17.38;13.77;;;-0.80;99.90;;;;;;5032289;28;20087;-73
2021/12/06 03:02:13;;;;;;;17.55;13.90;;;-0.80;99.90;;;;;;5032583;28;20376;-73
2021/12/06 03:04:40;;;;;;;18.25;13.93;;;-0.90;99.90;;;;;;5032328;28;20464;-72
2021/12/06 03:07:08;;;;;;;15.38;11.98;;;-0.80;99.90;;;;;;5023032;28;20511;-73
2021/12/06 03:09:37;;;;;;;17.83;13.45;;;-0.70;99.90;;;;;;5012600;28;20022;-72
2021/12/06 03:12:09;;;;;;;25.08;16.15;;;-0.60;99.90;;;;;;5004724;28;20485;-72
2021/12/06 03:14:39;;;;;;;21.75;18.65;;;-0.50;99.90;;;;;;5012059;28;20087;-72
2021/12/06 03:17:08;;;;;;;27.00;23.00;;;-0.50;99.90;;;;;;5012460;28;20026;-72
2021/12/06 03:19:34;;;;;;;28.73;23.60;;;-0.50;99.90;;;;;;5027514;28;20033;-72
2021/12/06 03:22:00;;;;;;;24.02;21.52;;;-0.60;99.90;;;;;;5032309;28;20023;-72
2021/12/06 03:24:26;;;;;;;23.30;20.63;;;-0.60;99.90;;;;;;5016919;28;20109;-72
2021/12/06 03:26:53;;;;;;;22.65;20.10;;;-0.60;99.90;;;;;;5012336;28;20514;-71
2021/12/06 03:29:20;;;;;;;25.10;22.33;;;-0.50;99.90;;;;;;5014218;28;20026;-71
2021/12/06 03:31:49;;;;;;;23.10;20.70;;;-0.50;99.90;;;;;;5031894;28;20037;-71
2021/12/06 03:34:16;;;;;;;23.48;20.95;;;-0.40;99.90;;;;;;5015996;28;20018;-71
2021/12/06 03:36:42;;;;;;;22.85;20.65;;;-0.40;99.90;;;;;;5012197;28;20540;-74
2021/12/06 03:39:20;;;;;;;23.95;21.45;;;-0.30;99.90;;;;;;5010870;28;20028;-74
2021/12/06 03:41:50;;;;;;;37.50;33.45;;;-0.30;99.90;;;;;;5010675;28;20026;-75
2021/12/06 03:44:16;;;;;;;40.88;36.45;;;-0.30;99.90;;;;;;5011862;28;20084;-75
2021/12/06 03:46:42;;;;;;;41.90;36.47;;;-0.40;99.90;;;;;;5010978;28;20436;-75
2021/12/06 03:49:11;;;;;;;27.25;23.63;;;-0.40;99.90;;;;;;5010716;28;20033;-75
2021/12/06 03:51:38;;;;;;;23.52;21.13;;;-0.40;99.90;;;;;;5011941;28;20029;-72
2021/12/06 03:54:04;;;;;;;23.65;21.15;;;-0.50;99.90;;;;;;5011514;28;20052;-70
2021/12/06 03:56:29;;;;;;;25.88;23.08;;;-0.50;99.90;;;;;;5024623;28;20087;-72
2021/12/06 03:58:55;;;;;;;22.90;19.92;;;-0.50;99.90;;;;;;5010795;28;20117;-72
2021/12/06 04:01:21;;;;;;;23.70;21.08;;;-0.40;99.90;;;;;;5010477;28;20030;-71
2021/12/06 04:03:47;;;;;;;25.00;22.42;;;-0.40;99.90;;;;;;5010566;28;20400;-73
2021/12/06 04:06:14;;;;;;;33.72;27.88;;;-0.50;99.90;;;;;;5011548;28;20045;-73
2021/12/06 04:08:40;;;;;;;26.45;22.13;;;-0.50;99.90;;;;;;5016921;28;20559;-72
2021/12/06 04:11:07;;;;;;;27.65;23.40;;;-0.60;99.90;;;;;;5023121;28;20120;-73
2021/12/06 04:13:33;;;;;;;30.75;26.00;;;-0.60;99.90;;;;;;5030217;28;20476;-74
2021/12/06 04:16:00;;;;;;;33.45;27.00;;;-0.70;99.90;;;;;;5031252;28;20021;-72
2021/12/06 04:18:25;;;;;;;29.67;25.58;;;-0.70;99.90;;;;;;5016907;28;20083;-73
2021/12/06 04:20:51;;;;;;;21.98;19.10;;;-0.70;99.90;;;;;;5018585;28;20029;-73
2021/12/06 04:23:17;;;;;;;26.08;22.42;;;-0.70;99.90;;;;;;5016543;28;20022;-73
2021/12/06 04:25:43;;;;;;;31.75;26.83;;;-0.70;99.90;;;;;;5020462;28;20072;-73
2021/12/06 04:28:13;;;;;;;25.00;21.38;;;-0.80;99.90;;;;;;5029133;28;20065;-74
2021/12/06 04:30:39;;;;;;;19.48;17.50;;;-0.80;99.90;;;;;;5028896;28;20074;-74
2021/12/06 04:33:05;;;;;;;29.80;24.35;;;-0.90;99.90;;;;;;5015837;28;20053;-73
2021/12/06 04:35:33;;;;;;;26.02;23.27;;;-0.80;99.90;;;;;;5015200;28;20038;-73
2021/12/06 04:38:00;;;;;;;26.67;23.80;;;-0.80;99.90;;;;;;5015498;28;20018;-73
2021/12/06 04:40:27;;;;;;;28.52;23.00;;;-0.90;99.90;;;;;;5016034;28;20068;-73
2021/12/06 04:42:53;;;;;;;21.95;19.65;;;-0.80;99.90;;;;;;5020658;28;20546;-73
2021/12/06 04:45:19;;;;;;;22.23;19.85;;;-0.70;99.90;;;;;;5016076;28;20494;-73
2021/12/06 04:47:44;;;;;;;30.85;25.55;;;-0.70;99.90;;;;;;5034995;28;20057;-73
2021/12/06 04:50:13;;;;;;;60.15;37.70;;;-0.70;99.90;;;;;;5022701;28;20365;-72
2021/12/06 04:52:39;;;;;;;47.00;35.75;;;-0.60;99.90;;;;;;5022820;28;20100;-73
2021/12/06 04:55:13;;;;;;;39.05;30.20;;;-0.70;99.90;;;;;;5019746;28;20058;-73
2021/12/06 04:57:44;;;;;;;29.67;25.05;;;-0.80;99.90;;;;;;5013856;28;20500;-73
2021/12/06 05:00:20;;;;;;;37.83;30.23;;;-0.80;99.90;;;;;;5028125;28;20037;-72
2021/12/06 05:02:46;;;;;;;;;;;-0.80;99.90;;;;;;5026667;28;20025;-72
2021/12/06 05:05:17;;;;;;;37.13;30.85;;;-0.70;99.90;;;;;;5033036;28;19916;-72
2021/12/06 05:07:49;;;;;;;38.45;30.13;;;-0.60;99.90;;;;;;5022509;28;20026;-73
2021/12/06 05:10:16;;;;;;;37.40;30.33;;;-0.70;99.90;;;;;;5028130;28;20101;-72
2021/12/06 05:12:43;;;;;;;49.00;34.75;;;-0.70;99.90;;;;;;5027902;28;20080;-71
2021/12/06 05:15:09;;;;;;;75.72;32.33;;;-0.90;99.90;;;;;;5034271;28;20017;-72
2021/12/06 05:17:35;;;;;;;45.75;32.40;;;-1.00;99.90;;;;;;5021087;28;20026;-72
2021/12/06 05:20:02;;;;;;;44.22;33.00;;;-1.00;99.90;;;;;;5014548;28;20396;-71
2021/12/06 05:22:28;;;;;;;35.70;27.02;;;-1.10;99.90;;;;;;5014664;28;20018;-71
2021/12/06 05:24:54;;;;;;;34.03;25.70;;;-1.00;99.90;;;;;;5014097;28;21315;-73
2021/12/06 05:27:26;;;;;;;48.08;33.47;;;-0.90;99.90;;;;;;5025521;28;20028;-73
2021/12/06 05:29:56;;;;;;;42.55;34.85;;;-0.80;99.90;;;;;;5008092;28;20491;-72
2021/12/06 05:32:25;;;;;;;31.50;25.52;;;-0.70;99.90;;;;;;5027324;28;20028;-71
2021/12/06 05:34:57;;;;;;;32.60;26.90;;;-0.70;99.90;;;;;;5014036;28;20072;-71
2021/12/06 05:37:22;;;;;;;30.33;26.92;;;-0.60;99.90;;;;;;5022611;28;20071;-73
2021/12/06 05:39:48;;;;;;;35.20;29.52;;;-0.60;99.90;;;;;;5019510;28;20128;-73
2021/12/06 05:42:13;;;;;;;33.45;28.17;;;-0.50;99.90;;;;;;5015700;28;20068;-71
2021/12/06 05:44:40;;;;;;;43.65;32.38;;;-0.50;99.90;;;;;;5022210;28;20391;-72
2021/12/06 05:47:06;;;;;;;39.28;31.92;;;-0.70;99.90;;;;;;5033799;28;20022;-73
2021/12/06 05:49:32;;;;;;;35.45;29.25;;;-0.70;99.90;;;;;;5033657;28;20059;-73
2021/12/06 05:51:58;;;;;;;35.10;29.48;;;-0.70;99.90;;;;;;5032411;28;20029;-73
2021/12/06 05:54:24;;;;;;;51.42;39.25;;;-0.70;99.90;;;;;;5025514;28;20120;-72
2021/12/06 05:56:51;;;;;;;47.40;36.50;;;-0.70;99.90;;;;;;5028884;28;20028;-74
2021/12/06 05:59:17;;;;;;;36.45;27.38;;;-0.80;99.90;;;;;;5032041;28;20037;-74
2021/12/06 06:01:43;;;;;;;37.10;29.95;;;-0.80;99.90;;;;;;5013083;28;20021;-74
2021/12/06 06:04:09;;;;;;;32.03;27.45;;;-0.70;99.90;;;;;;5012043;28;20025;-73
2021/12/06 06:06:36;;;;;;;32.08;26.52;;;-0.70;99.90;;;;;;5027046;28;20017;-74
2021/12/06 06:09:04;;;;;;;39.97;31.63;;;-0.80;99.90;;;;;;5021900;28;20038;-73
2021/12/06 06:11:29;;;;;;;44.28;32.50;;;-0.90;99.90;;;;;;5016951;28;20022;-75
2021/12/06 06:13:55;;;;;;;35.60;30.20;;;-0.90;99.90;;;;;;5010642;28;20044;-73
2021/12/06 06:16:22;;;;;;;40.35;31.50;;;-0.90;99.90;;;;;;5026154;28;20432;-73
2021/12/06 06:18:50;;;;;;;33.88;30.42;;;-0.90;99.90;;;;;;5013417;28;20053;-74
2021/12/06 06:21:17;;;;;;;37.75;31.88;;;-0.90;99.90;;;;;;5013234;28;20034;-73
2021/12/06 06:23:43;;;;;;;27.52;24.58;;;-0.80;99.90;;;;;;5013091;28;20464;-73
2021/12/06 06:26:08;;;;;;;28.48;24.65;;;-0.80;99.90;;;;;;5026511;28;20033;-74
2021/12/06 06:28:34;;;;;;;37.00;30.40;;;-0.70;99.90;;;;;;5011936;28;20025;-74
2021/12/06 06:31:00;;;;;;;47.95;35.42;;;-0.80;99.90;;;;;;5028036;28;20179;-75
2021/12/06 06:33:26;;;;;;;36.03;24.98;;;-0.70;99.90;;;;;;5030296;28;20029;-74
2021/12/06 06:35:52;;;;;;;34.70;24.17;;;-0.70;99.90;;;;;;5012821;28;20392;-74
2021/12/06 06:38:17;;;;;;;46.15;31.67;;;-0.70;99.90;;;;;;5013159;28;20510;-75
2021/12/06 06:40:43;;;;;;;41.15;30.73;;;-0.70;99.90;;;;;;5014820;28;20038;-73
2021/12/06 06:43:09;;;;;;;68.25;35.35;;;-0.80;99.90;;;;;;5013019;28;20041;-74
2021/12/06 06:45:35;;;;;;;36.25;27.00;;;-0.80;99.90;;;;;;5029014;28;20472;-74
2021/12/06 06:48:00;;;;;;;41.50;32.00;;;-0.80;99.90;;;;;;5022812;28;20030;-75
2021/12/06 06:50:26;;;;;;;36.38;29.27;;;-0.80;99.90;;;;;;5028674;28;20041;-73
2021/12/06 06:52:53;;;;;;;27.35;24.30;;;-0.80;99.90;;;;;;5022018;28;20030;-72
2021/12/06 06:55:19;;;;;;;32.25;28.75;;;-0.80;99.90;;;;;;5015482;28;20080;-74
2021/12/06 06:57:46;;;;;;;25.30;22.67;;;-0.80;99.90;;;;;;5032471;28;20030;-75
2021/12/06 07:00:17;;;;;;;29.30;26.20;;;-0.80;99.90;;;;;;5032112;28;20403;-74
2021/12/06 07:02:44;;;;;;;30.50;27.30;;;-0.70;99.90;;;;;;5032535;28;20504;-73
2021/12/06 07:05:10;;;;;;;29.00;25.38;;;-0.80;99.90;;;;;;5015458;28;20061;-73
2021/12/06 07:07:36;;;;;;;42.67;32.83;;;-0.70;99.90;;;;;;5012503;28;20037;-72
2021/12/06 07:10:03;;;;;;;139.70;125.63;;;-0.70;99.90;;;;;;5012309;28;20117;-72
2021/12/06 07:12:29;;;;;;;69.13;61.63;;;-0.80;99.90;;;;;;5012567;28;20109;-73
2021/12/06 07:14:54;;;;;;;50.10;37.55;;;-1.00;99.90;;;;;;5009548;28;20128;-72
2021/12/06 07:17:20;;;;;;;44.00;34.65;;;-1.00;99.90;;;;;;5016086;28;20033;-72
2021/12/06 07:19:45;;;;;;;49.13;40.92;;;-0.90;99.90;;;;;;5019839;28;20029;-73
2021/12/06 07:22:11;;;;;;;45.80;35.17;;;-1.00;99.90;;;;;;5013990;28;20029;-72
2021/12/06 07:24:37;;;;;;;35.55;31.70;;;-1.10;99.90;;;;;;5016330;28;20532;-73
2021/12/06 07:27:04;;;;;;;47.88;39.10;;;-1.00;99.90;;;;;;5013176;28;20063;-72
2021/12/06 07:29:33;;;;;;;32.33;28.23;;;-0.90;99.90;;;;;;5011598;28;20029;-72
2021/12/06 07:31:59;;;;;;;34.60;28.77;;;-0.80;99.90;;;;;;5020747;28;20037;-73
2021/12/06 07:34:25;;;;;;;34.33;30.48;;;-0.70;99.90;;;;;;5014209;28;20030;-72
2021/12/06 07:36:51;;;;;;;32.05;27.52;;;-0.60;99.90;;;;;;5012664;28;20030;-73
2021/12/06 07:39:17;;;;;;;37.78;29.85;;;-0.60;99.90;;;;;;5014834;28;20483;-72
2021/12/06 07:41:42;;;;;;;31.23;27.88;;;-0.50;99.90;;;;;;5018042;28;20504;-74
2021/12/06 07:44:09;;;;;;;34.30;28.83;;;-0.50;99.90;;;;;;5012321;28;20028;-74
2021/12/06 07:46:34;;;;;;;33.17;26.77;;;-0.40;99.90;;;;;;5015382;28;20045;-74
2021/12/06 07:49:00;;;;;;;42.92;35.05;;;-0.40;99.90;;;;;;5018425;28;20053;-74
2021/12/06 07:51:27;;;;;;;38.97;32.28;;;-0.40;99.90;;;;;;5011858;28;20056;-74
2021/12/06 07:53:54;;;;;;;31.30;27.55;;;-0.40;99.90;;;;;;5014387;28;20022;-70
2021/12/06 07:56:19;;;;;;;44.03;36.88;;;-0.40;99.90;;;;;;5012502;28;20117;-71
2021/12/06 07:58:47;;;;;;;38.60;32.35;;;-0.40;99.90;;;;;;5018257;28;20109;-73
2021/12/06 08:01:13;;;;;;;45.03;35.08;;;-0.40;99.90;;;;;;5019731;28;20036;-75
2021/12/06 08:03:41;;;;;;;46.33;37.08;;;-0.40;99.90;;;;;;5013595;28;20022;-75
2021/12/06 08:06:08;;;;;;;33.08;28.75;;;-0.60;99.90;;;;;;5014666;28;20034;-74
2021/12/06 08:08:35;;;;;;;38.30;31.35;;;-0.50;99.90;;;;;;5013114;28;20047;-74
2021/12/06 08:11:12;;;;;;;42.90;36.42;;;-0.50;99.90;;;;;;5012148;28;20036;-72
2021/12/06 08:13:43;;;;;;;37.40;31.98;;;-0.40;99.90;;;;;;5016582;28;20444;-73
2021/12/06 08:16:19;;;;;;;36.70;32.28;;;-0.50;99.90;;;;;;5023871;28;20025;-72
2021/12/06 08:18:45;;;;;;;36.53;30.70;;;-0.40;99.90;;;;;;5016715;28;20029;-73
2021/12/06 08:21:13;;;;;;;37.65;30.92;;;-0.30;99.90;;;;;;5021525;28;20029;-72
2021/12/06 08:23:39;;;;;;;31.83;26.83;;;-0.30;99.90;;;;;;5011272;28;20018;-73
2021/12/06 08:26:07;;;;;;;33.30;28.92;;;-0.20;99.90;;;;;;5021838;28;21336;-72
2021/12/06 08:28:34;;;;;;;30.80;27.50;;;-0.20;99.90;;;;;;5009817;28;20038;-73
2021/12/06 08:31:01;;;;;;;36.65;32.70;;;-0.20;99.90;;;;;;5019542;28;20018;-72
2021/12/06 08:33:27;;;;;;;37.78;33.60;;;-0.10;99.90;;;;;;5015565;28;20106;-71
2021/12/06 08:35:55;;;;;;;42.08;37.78;;;0.00;99.90;;;;;;5020266;28;20038;-71
2021/12/06 08:38:23;;;;;;;37.40;33.45;;;0.00;99.90;;;;;;5016060;28;20433;-73
2021/12/06 08:40:51;;;;;;;43.28;36.50;;;0.00;99.90;;;;;;5023201;28;20100;-71
2021/12/06 08:43:19;;;;;;;45.63;40.70;;;0.10;99.90;;;;;;5019979;28;20026;-71
2021/12/06 08:45:48;;;;;;;43.75;36.88;;;0.10;99.90;;;;;;5014977;28;20018;-72
2021/12/06 08:48:14;;;;;;;49.83;40.47;;;0.00;99.90;;;;;;5022914;28;20024;-72
2021/12/06 08:50:40;;;;;;;45.67;40.00;;;-0.10;99.90;;;;;;5021666;28;20396;-71
2021/12/06 08:53:05;;;;;;;51.25;42.63;;;0.00;99.90;;;;;;5011637;28;20080;-70
2021/12/06 08:55:31;;;;;;;57.30;49.40;;;0.10;99.90;;;;;;5017236;28;20022;-72
2021/12/06 08:57:57;;;;;;;60.25;49.13;;;0.20;99.90;;;;;;5007194;28;20022;-72
2021/12/06 09:00:27;;;;;;;46.35;40.60;;;0.10;99.90;;;;;;5010268;28;20038;-72
2021/12/06 09:02:53;;;;;;;44.10;37.55;;;0.30;99.90;;;;;;5010633;28;20121;-73
2021/12/06 09:05:20;;;;;;;52.75;43.70;;;0.30;99.90;;;;;;5011465;28;20022;-72
2021/12/06 09:07:45;;;;;;;65.82;52.42;;;0.30;99.90;;;;;;5018932;28;20368;-72
2021/12/06 09:10:12;;;;;;;65.45;49.97;;;0.30;99.90;;;;;;5022990;28;20108;-72
2021/12/06 09:12:39;;;;;;;65.07;47.05;;;0.40;99.90;;;;;;5021324;28;20483;-72
2021/12/06 09:15:10;;;;;;;64.50;45.53;;;0.40;99.90;;;;;;5021729;28;20026;-71
2021/12/06 09:17:36;;;;;;;49.88;39.40;;;0.50;99.90;;;;;;5015318;28;20053;-74
2021/12/06 09:20:04;;;;;;;59.25;36.20;;;0.50;99.90;;;;;;5015656;28;20037;-72
2021/12/06 09:22:30;;;;;;;39.28;32.80;;;0.50;99.90;;;;;;5020905;28;20018;-72
2021/12/06 09:24:56;;;;;;;82.55;58.95;;;0.60;99.90;;;;;;5025440;28;20755;-72
2021/12/06 09:27:22;;;;;;;43.65;37.20;;;0.70;99.90;;;;;;5015485;28;20029;-73
2021/12/06 09:29:47;;;;;;;42.30;37.05;;;0.50;99.90;;;;;;5019556;28;20524;-71
2021/12/06 09:32:14;;;;;;;41.20;36.70;;;0.50;99.90;;;;;;5018318;28;20639;-72
2021/12/06 09:34:43;;;;;;;45.38;38.30;;;0.60;99.90;;;;;;5019623;28;20033;-72
2021/12/06 09:37:11;;;;;;;42.58;37.78;;;0.60;99.90;;;;;;5018668;28;20034;-72
2021/12/06 09:39:37;;;;;;;53.20;44.47;;;0.60;99.90;;;;;;5010725;28;20396;-72
2021/12/06 09:42:03;;;;;;;41.03;36.75;;;0.50;99.90;;;;;;5026595;28;20022;-72
2021/12/06 09:44:29;;;;;;;49.03;41.85;;;0.60;99.90;;;;;;5013698;28;20037;-71
2021/12/06 09:46:55;;;;;;;48.35;42.10;;;0.60;99.90;;;;;;5014641;28;20029;-71
2021/12/06 09:49:22;;;;;;;37.72;32.35;;;0.60;99.90;;;;;;5016840;28;20034;-71
2021/12/06 09:51:53;;;;;;;43.30;38.00;;;0.60;99.90;;;;;;5014453;28;20029;-73
2021/12/06 09:54:27;;;;;;;37.40;33.40;;;0.70;99.90;;;;;;5011027;28;20549;-71
2021/12/06 09:56:54;;;;;;;47.28;39.15;;;0.70;99.90;;;;;;5014362;28;20140;-71
2021/12/06 09:59:24;;;;;;;41.92;35.38;;;0.80;99.90;;;;;;5013101;28;20026;-71
2021/12/06 10:01:53;;;;;;;40.13;35.92;;;0.90;99.90;;;;;;5015730;28;20029;-71
2021/12/06 10:04:22;;;;;;;38.53;34.30;;;0.80;99.90;;;;;;5013860;28;20022;-71
2021/12/06 10:06:50;;;;;;;36.85;32.50;;;0.80;99.90;;;;;;5013940;28;20442;-71
2021/12/06 10:09:18;;;;;;;34.35;30.63;;;0.90;99.90;;;;;;5012855;28;20034;-71
2021/12/06 10:11:44;;;;;;;36.17;30.52;;;1.00;99.90;;;;;;5014289;28;20029;-71
2021/12/06 10:14:10;;;;;;;39.28;34.40;;;1.20;99.90;;;;;;5013104;28;20026;-71
2021/12/06 10:16:36;;;;;;;37.85;31.73;;;1.10;99.90;;;;;;5015168;28;20348;-71
2021/12/06 10:19:05;;;;;;;38.30;32.63;;;1.10;99.90;;;;;;5022253;28;20109;-70
2021/12/06 10:21:32;;;;;;;38.58;34.47;;;1.00;99.90;;;;;;5024851;28;20013;-71
2021/12/06 10:23:59;;;;;;;34.10;30.50;;;1.10;99.90;;;;;;5020841;28;20061;-71
2021/12/06 10:26:29;;;;;;;32.17;28.80;;;1.40;99.90;;;;;;5019803;28;20036;-71
2021/12/06 10:29:07;;;;;;;37.00;32.58;;;1.30;99.90;;;;;;5019611;28;20386;-71
2021/12/06 10:31:38;;;;;;;30.42;27.33;;;1.30;99.90;;;;;;5018531;28;20108;-71
2021/12/06 10:34:04;;;;;;;30.58;27.42;;;1.30;99.90;;;;;;5011650;28;20030;-72
2021/12/06 10:36:29;;;;;;;38.05;33.15;;;1.40;99.90;;;;;;5011904;28;20084;-72
2021/12/06 10:39:01;;;;;;;33.72;28.67;;;1.50;99.90;;;;;;5030668;28;20025;-70
2021/12/06 10:41:29;;;;;;;32.03;28.60;;;1.40;99.90;;;;;;5021876;28;20072;-71
2021/12/06 10:44:15;;;;;;;33.42;29.50;;;1.30;99.90;;;;;;5016593;28;20025;-71
2021/12/06 10:46:48;;;;;;;37.80;31.55;;;1.30;99.90;;;;;;5013057;28;20084;-72
2021/12/06 10:49:17;;;;;;;43.65;33.92;;;1.10;99.90;;;;;;5018976;28;20025;-72
2021/12/06 10:51:42;;;;;;;34.08;28.25;;;1.10;99.90;;;;;;5032130;28;20083;-72
2021/12/06 10:54:28;;;;;;;33.08;28.13;;;1.40;99.90;;;;;;5020394;28;20033;-71
2021/12/06 10:56:59;;;;;;;32.58;28.13;;;1.50;99.90;;;;;;5018463;28;20032;-73
2021/12/06 10:59:28;;;;;;;33.92;29.10;;;1.50;99.90;;;;;;5016795;28;20034;-72
2021/12/06 11:02:04;;;;;;;33.90;27.90;;;1.20;99.90;;;;;;5014062;28;20028;-71
2021/12/06 11:04:30;;;;;;;29.35;26.20;;;1.30;99.90;;;;;;5031275;28;20541;-71
2021/12/06 11:07:04;;;;;;;33.90;28.33;;;1.50;99.90;;;;;;5017015;28;20025;-71
2021/12/06 11:09:31;;;;;;;36.53;29.67;;;1.60;99.90;;;;;;5025125;28;20454;-71
2021/12/06 11:12:00;;;;;;;36.08;30.75;;;1.40;99.90;;;;;;5012381;28;20026;-75
2021/12/06 11:14:30;;;;;;;37.78;30.65;;;1.40;99.90;;;;;;5015348;28;20065;-72
2021/12/06 11:17:10;;;;;;;40.80;32.22;;;1.40;99.90;;;;;;5016623;28;20110;-72
2021/12/06 11:19:37;;;;;;;33.08;28.33;;;1.40;99.90;;;;;;5021111;28;20030;-71
2021/12/06 11:22:04;;;;;;;37.35;31.40;;;1.60;99.90;;;;;;5013396;28;20026;-72
2021/12/06 11:24:31;;;;;;;40.38;33.58;;;1.40;99.90;;;;;;5014647;28;20030;-72
2021/12/06 11:27:04;;;;;;;36.67;29.85;;;1.50;99.90;;;;;;5021763;28;20130;-72
2021/12/06 11:29:45;;;;;;;35.53;30.52;;;1.60;99.90;;;;;;5020870;28;20396;-72
2021/12/06 11:32:23;;;;;;;33.03;28.23;;;1.80;99.90;;;;;;5011570;28;20084;-74
2021/12/06 11:34:54;;;;;;;33.28;27.38;;;1.70;99.90;;;;;;5009110;28;20030;-72
2021/12/06 11:37:27;;;;;;;32.90;27.52;;;1.70;99.90;;;;;;5022559;28;20030;-71
2021/12/06 11:40:21;;;;;;;34.33;29.45;;;1.80;99.90;;;;;;5017132;28;20404;-72
2021/12/06 11:43:03;;;;;;;34.72;28.13;;;1.80;99.90;;;;;;5022672;28;20029;-74
2021/12/06 11:45:39;;;;;;;32.22;28.13;;;1.80;99.90;;;;;;5017332;28;20744;-71
2021/12/06 11:48:08;;;;;;;34.92;30.95;;;2.10;99.90;;;;;;5016576;28;20018;-71
2021/12/06 11:50:41;;;;;;;35.60;28.88;;;2.20;99.90;;;;;;5020525;28;20076;-71
2021/12/06 11:53:07;;;;;;;38.25;31.98;;;2.30;99.90;;;;;;5016244;28;20033;-72
2021/12/06 11:55:35;;;;;;;35.17;30.48;;;2.30;99.90;;;;;;5015619;28;20025;-71
2021/12/06 11:58:03;;;;;;;32.63;28.38;;;2.30;99.90;;;;;;5016064;28;20540;-71
2021/12/06 12:00:29;;;;;;;33.13;29.27;;;2.50;99.90;;;;;;5015580;28;20484;-71
2021/12/06 12:02:59;;;;;;;34.17;29.25;;;2.60;99.90;;;;;;5012315;28;20034;-71
2021/12/06 12:05:36;;;;;;;30.92;27.55;;;2.20;99.90;;;;;;5010613;28;20060;-71
2021/12/06 12:08:10;;;;;;;36.30;29.38;;;2.30;99.90;;;;;;5009766;28;20483;-71
2021/12/06 12:10:45;;;;;;;37.38;30.65;;;2.50;99.90;;;;;;5015739;28;20021;-71
2021/12/06 12:13:24;;;;;;;34.83;26.73;;;2.40;99.90;;;;;;5014751;28;20026;-72
2021/12/06 12:15:53;;;;;;;31.20;27.80;;;2.30;99.90;;;;;;5010976;28;20694;-72
2021/12/06 12:18:19;;;;;;;35.63;29.17;;;2.50;99.90;;;;;;5015471;28;20108;-73
2021/12/06 12:20:46;;;;;;;31.67;26.88;;;2.40;99.90;;;;;;5019054;28;20022;-72
2021/12/06 12:23:12;;;;;;;32.42;27.23;;;2.60;99.90;;;;;;5013033;28;20029;-71
2021/12/06 12:25:48;;;;;;;31.35;27.23;;;2.50;99.90;;;;;;5009354;28;20026;-72
2021/12/06 12:28:28;;;;;;;32.50;28.60;;;2.70;99.90;;;;;;5012979;28;20400;-72
2021/12/06 12:30:57;;;;;;;32.97;27.48;;;2.50;99.90;;;;;;5015055;28;20113;-71
2021/12/06 12:33:23;;;;;;;29.17;26.05;;;2.40;99.90;;;;;;5011823;28;20488;-72
2021/12/06 12:35:52;;;;;;;30.08;26.80;;;2.70;99.90;;;;;;5013162;28;20026;-72
2021/12/06 12:38:26;;;;;;;32.10;27.05;;;2.80;99.90;;;;;;5016537;28;20540;-71
2021/12/06 12:40:58;;;;;;;31.65;27.55;;;2.70;99.90;;;;;;5012469;28;20022;-72
2021/12/06 12:43:32;;;;;;;30.48;24.77;;;2.80;99.90;;;;;;5010277;28;20383;-72
2021/12/06 12:46:05;;;;;;;32.40;27.67;;;2.70;99.90;;;;;;5011867;28;20030;-73
2021/12/06 12:48:45;;;;;;;30.15;25.65;;;2.60;99.90;;;;;;5017069;28;20022;-71